Time;durP1;ratioP1;P1;durP2;ratioP2;P2;SDS_P1;SDS_P2;PMS_P1;PMS_P2;Temp;Humidity;BMP_temperature;BMP_pressure;BME280_temperature;BME280_humidity;BME280_pressure;Samples;Min_cycle;Max_cycle;Signal;HPM_P1;HPM_P2
2022/02/27 00:01:02;;;;;;;104.13;41.67;;;-0.20;99.90;;;;;;5094294;28;20654;-88
2022/02/27 00:03:27;;;;;;;112.07;44.20;;;1.30;99.90;;;;;;5109668;28;20625;-89
2022/02/27 00:05:53;;;;;;;123.40;47.67;;;;;;;;;;5092758;28;20543;-89
2022/02/27 00:08:19;;;;;;;121.37;49.47;;;-0.60;99.90;;;;;;5109585;28;20521;-89
2022/02/27 00:10:45;;;;;;;126.17;50.40;;;-0.60;99.90;;;;;;5092093;28;20200;-88
2022/02/27 00:13:10;;;;;;;115.43;49.97;;;1.20;99.90;;;;;;5075607;28;20266;-88
2022/02/27 00:15:36;;;;;;;115.87;47.00;;;-0.90;99.90;;;;;;5075388;28;20238;-88
2022/02/27 00:18:02;;;;;;;107.30;43.90;;;1.70;99.90;;;;;;5093705;28;20253;-89
2022/02/27 00:20:28;;;;;;;117.30;44.43;;;-0.70;99.90;;;;;;5109383;28;20299;-89
2022/02/27 00:22:54;;;;;;;101.47;44.47;;;-0.70;99.90;;;;;;5092657;28;20191;-89
2022/02/27 00:25:19;;;;;;;111.83;44.67;;;1.20;99.90;;;;;;5092906;28;20548;-89
2022/02/27 00:27:45;;;;;;;109.87;43.40;;;-0.50;99.90;;;;;;5092939;28;20185;-90
2022/02/27 00:30:11;;;;;;;106.90;43.90;;;0.80;99.90;;;;;;5092316;28;20597;-89
2022/02/27 00:32:37;;;;;;;99.50;41.87;;;0.10;99.90;;;;;;5089681;28;20808;-89
2022/02/27 00:35:05;;;;;;;107.90;44.60;;;-0.80;99.90;;;;;;5092559;28;20214;-90
2022/02/27 00:37:31;;;;;;;104.47;42.97;;;-0.80;99.90;;;;;;5094090;28;20225;-89
2022/02/27 00:39:56;;;;;;;98.63;42.70;;;-0.80;99.90;;;;;;5094154;28;20181;-89
2022/02/27 00:42:22;;;;;;;100.43;41.60;;;-0.80;99.90;;;;;;5093730;28;20308;-90
2022/02/27 00:44:49;;;;;;;107.87;41.47;;;1.10;99.90;;;;;;5093965;28;20649;-89
2022/02/27 00:47:14;;;;;;;98.80;41.33;;;-0.70;99.90;;;;;;5110944;28;20272;-89
2022/02/27 00:49:41;;;;;;;102.10;39.97;;;-0.40;99.90;;;;;;5105170;28;20224;-89
2022/02/27 00:52:06;;;;;;;91.40;39.40;;;1.50;99.90;;;;;;5109744;28;20188;-88
2022/02/27 00:54:32;;;;;;;84.77;36.80;;;-0.70;99.90;;;;;;5126336;28;20219;-87
2022/02/27 00:56:58;;;;;;;88.93;36.17;;;-0.70;99.90;;;;;;5116881;28;20163;-87
2022/02/27 00:59:24;;;;;;;76.40;34.57;;;-0.50;99.90;;;;;;5099957;28;20176;-88
2022/02/27 01:01:50;;;;;;;77.13;33.10;;;0.00;99.90;;;;;;5124646;28;20185;-86
2022/02/27 01:04:15;;;;;;;71.33;33.77;;;0.80;99.90;;;;;;5100469;28;20653;-88
2022/02/27 01:06:41;;;;;;;84.50;34.50;;;2.10;99.90;;;;;;5099146;28;20647;-88
2022/02/27 01:09:07;;;;;;;101.47;38.70;;;;;;;;;;5081799;28;20244;-88
2022/02/27 01:11:33;;;;;;;81.77;36.90;;;-0.70;99.90;;;;;;5097328;28;20181;-88
2022/02/27 01:14:01;;;;;;;90.23;36.13;;;-0.60;99.90;;;;;;5096767;28;20213;-88
2022/02/27 01:16:27;;;;;;;83.97;35.87;;;-0.60;99.90;;;;;;5113413;28;20182;-89
2022/02/27 01:18:53;;;;;;;80.97;35.57;;;;;;;;;;5114988;28;20238;-88
2022/02/27 01:21:19;;;;;;;81.63;35.03;;;;;;;;;;5099177;28;20275;-88
2022/02/27 01:23:46;;;;;;;77.27;33.87;;;-0.70;99.90;;;;;;5116483;28;20624;-88
2022/02/27 01:26:13;;;;;;;69.47;31.07;;;-0.60;99.90;;;;;;5112935;28;20186;-88
2022/02/27 01:28:39;;;;;;;75.70;30.07;;;0.70;99.90;;;;;;5096801;28;20185;-89
2022/02/27 01:31:07;;;;;;;84.20;34.50;;;2.00;99.90;;;;;;5113113;27;20187;-89
2022/02/27 01:33:33;;;;;;;81.20;34.27;;;1.10;99.90;;;;;;5112375;28;20226;-88
2022/02/27 01:35:58;;;;;;;98.53;38.70;;;1.90;99.90;;;;;;5097105;28;20182;-89
2022/02/27 01:38:24;;;;;;;103.33;40.93;;;-0.20;99.90;;;;;;5112535;28;20182;-89
2022/02/27 01:40:50;;;;;;;97.73;39.30;;;2.20;99.90;;;;;;5078803;28;20207;-89
2022/02/27 01:43:15;;;;;;;64.03;27.13;;;0.10;99.90;;;;;;5112510;28;20183;-89
2022/02/27 01:45:41;;;;;;;59.17;26.73;;;-0.60;99.90;;;;;;5096914;28;20194;-89
2022/02/27 01:48:07;;;;;;;59.40;26.20;;;0.80;99.90;;;;;;5099162;28;20189;-88
2022/02/27 01:50:32;;;;;;;63.60;27.43;;;1.90;99.90;;;;;;5115567;28;20585;-89
2022/02/27 01:52:58;;;;;;;69.30;30.40;;;-0.40;99.90;;;;;;5097124;28;20199;-89
2022/02/27 01:55:24;;;;;;;68.60;26.93;;;2.00;99.90;;;;;;5112297;28;20209;-89
2022/02/27 01:57:50;;;;;;;64.70;25.23;;;;;;;;;;5130217;27;20224;-89
2022/02/27 02:00:16;;;;;;;64.27;27.37;;;1.60;99.90;;;;;;5100299;28;20182;-89
2022/02/27 02:02:43;;;;;;;55.50;24.50;;;0.30;99.90;;;;;;5104315;28;20190;-89
2022/02/27 02:05:09;;;;;;;54.07;23.90;;;2.70;99.90;;;;;;5101524;28;20655;-88
2022/02/27 02:07:35;;;;;;;45.73;21.33;;;0.70;99.90;;;;;;5095100;28;21046;-88
2022/02/27 02:10:01;;;;;;;50.47;21.13;;;2.00;99.90;;;;;;5115326;28;20187;-90
2022/02/27 02:12:28;;;;;;;48.43;22.10;;;1.90;99.90;;;;;;5101403;28;20231;-89
2022/02/27 02:14:54;;;;;;;42.77;21.43;;;1.40;99.90;;;;;;5079091;28;20211;-89
2022/02/27 02:17:19;;;;;;;47.50;22.23;;;0.10;99.90;;;;;;5111855;28;20662;-88
2022/02/27 02:19:45;;;;;;;51.10;22.17;;;0.10;99.90;;;;;;5094984;28;20218;-88
2022/02/27 02:22:12;;;;;;;44.10;22.30;;;0.10;99.90;;;;;;5094753;28;20560;-88
2022/02/27 02:24:37;;;;;;;50.90;21.97;;;0.40;99.90;;;;;;5095795;28;20430;-88
2022/02/27 02:27:03;;;;;;;48.87;22.43;;;0.40;99.90;;;;;;5094993;28;20627;-88
2022/02/27 02:29:29;;;;;;;41.93;21.47;;;0.00;99.90;;;;;;5095785;28;20181;-88
2022/02/27 02:31:56;;;;;;;44.57;21.70;;;2.70;99.90;;;;;;5094719;28;20244;-87
2022/02/27 02:34:24;;;;;;;45.23;22.57;;;0.50;99.90;;;;;;5077125;28;20319;-87
2022/02/27 02:36:50;;;;;;;49.37;22.53;;;0.10;99.90;;;;;;5111365;28;20282;-88
2022/02/27 02:39:18;;;;;;;44.97;21.77;;;1.70;99.90;;;;;;5095930;28;20638;-88
2022/02/27 02:41:44;;;;;;;43.63;20.93;;;-0.20;99.90;;;;;;5094398;28;20205;-88
2022/02/27 02:44:11;;;;;;;53.13;20.60;;;-0.30;99.90;;;;;;5095577;28;20240;-88
2022/02/27 02:46:37;;;;;;;41.87;19.93;;;1.30;99.90;;;;;;5110644;28;20182;-87
2022/02/27 02:49:04;;;;;;;53.13;20.50;;;0.70;99.90;;;;;;5077575;28;20174;-88
2022/02/27 02:51:30;;;;;;;40.00;20.43;;;2.00;99.90;;;;;;5111059;28;20317;-88
2022/02/27 02:53:56;;;;;;;46.40;17.80;;;-0.40;99.90;;;;;;5093875;28;20671;-88
2022/02/27 02:56:21;;;;;;;31.23;16.03;;;1.90;99.90;;;;;;5094879;28;20212;-87
2022/02/27 02:58:48;;;;;;;33.50;16.87;;;-0.40;99.90;;;;;;5093678;28;20539;-88
2022/02/27 03:01:16;;;;;;;36.97;18.27;;;-0.40;99.90;;;;;;5110784;28;20638;-87
2022/02/27 03:03:43;;;;;;;37.80;17.23;;;-0.20;99.90;;;;;;5110338;28;20206;-88
2022/02/27 03:06:10;;;;;;;39.93;17.20;;;-0.40;99.90;;;;;;5094055;28;20176;-87
2022/02/27 03:08:37;;;;;;;36.70;17.30;;;-0.50;99.90;;;;;;5094502;28;20255;-87
2022/02/27 03:11:03;;;;;;;40.13;18.43;;;-0.50;99.90;;;;;;5095040;28;20172;-88
2022/02/27 03:13:28;;;;;;;40.70;17.93;;;0.80;99.90;;;;;;5095090;28;20243;-88
2022/02/27 03:15:54;;;;;;;36.53;16.70;;;-0.50;99.90;;;;;;5110511;28;20627;-88
2022/02/27 03:18:20;;;;;;;38.20;16.27;;;1.50;99.90;;;;;;5110810;28;20182;-88
2022/02/27 03:20:46;;;;;;;39.97;17.17;;;1.20;99.90;;;;;;5094794;28;20182;-88
2022/02/27 03:23:11;;;;;;;35.70;17.73;;;1.00;99.90;;;;;;5110278;28;20277;-88
2022/02/27 03:25:37;;;;;;;36.67;17.90;;;1.10;99.90;;;;;;5094183;28;20190;-88
2022/02/27 03:28:03;;;;;;;35.73;17.70;;;-0.50;99.90;;;;;;5093344;28;20186;-88
2022/02/27 03:30:30;;;;;;;39.67;19.77;;;-0.50;99.90;;;;;;5076278;28;20627;-88
2022/02/27 03:32:56;;;;;;;44.03;18.07;;;;;;;;;;5109952;28;20258;-89
2022/02/27 03:35:22;;;;;;;37.87;19.43;;;-0.60;99.90;;;;;;5093437;28;20307;-88
2022/02/27 03:37:50;;;;;;;40.17;19.57;;;1.30;99.90;;;;;;5094200;28;20313;-88
2022/02/27 03:40:20;;;;;;;37.67;19.57;;;-0.70;99.90;;;;;;5110311;28;20210;-88
2022/02/27 03:42:46;;;;;;;45.80;20.40;;;1.40;99.90;;;;;;5094302;28;20183;-88
2022/02/27 03:45:13;;;;;;;45.97;20.27;;;-0.30;99.90;;;;;;5092995;28;20267;-87
2022/02/27 03:47:40;;;;;;;46.13;20.13;;;0.00;99.90;;;;;;5109986;28;20174;-87
2022/02/27 03:50:07;;;;;;;40.30;21.00;;;-0.80;99.90;;;;;;5093079;28;20183;-88
2022/02/27 03:52:34;;;;;;;48.40;20.73;;;-0.90;99.90;;;;;;5109753;28;20179;-88
2022/02/27 03:55:01;;;;;;;44.83;22.07;;;-0.90;99.90;;;;;;5094204;28;20206;-88
2022/02/27 03:57:27;;;;;;;41.73;20.83;;;1.80;99.90;;;;;;5092977;28;20184;-87
2022/02/27 03:59:53;;;;;;;44.30;21.43;;;0.10;99.90;;;;;;5076048;28;20267;-88
2022/02/27 04:02:18;;;;;;;47.90;21.13;;;-1.10;99.90;;;;;;5076007;28;20601;-89
2022/02/27 04:04:44;;;;;;;42.23;19.20;;;-1.20;99.90;;;;;;5092446;28;20233;-88
2022/02/27 04:07:10;;;;;;;42.10;19.20;;;-1.20;99.90;;;;;;5093028;28;20658;-88
2022/02/27 04:09:35;;;;;;;49.47;21.47;;;-1.10;99.90;;;;;;5092511;28;20284;-89
2022/02/27 04:12:01;;;;;;;41.93;19.97;;;-1.30;99.90;;;;;;5076079;28;20579;-88
2022/02/27 04:14:27;;;;;;;41.53;19.73;;;-1.30;99.90;;;;;;5109816;28;20218;-89
2022/02/27 04:16:52;;;;;;;39.40;20.03;;;-0.90;99.90;;;;;;5075484;28;20182;-87
2022/02/27 04:19:18;;;;;;;40.80;18.93;;;0.90;99.90;;;;;;5092742;28;20183;-88
2022/02/27 04:21:44;;;;;;;45.60;19.37;;;;;;;;;;5075632;28;20247;-88
2022/02/27 04:24:10;;;;;;;45.60;21.13;;;-1.40;99.90;;;;;;5092493;28;20238;-88
2022/02/27 04:26:36;;;;;;;43.70;20.73;;;-0.30;99.90;;;;;;5092342;28;20653;-88
2022/02/27 04:29:02;;;;;;;36.60;20.13;;;;;;;;;;5092458;28;20702;-88
2022/02/27 04:31:28;;;;;;;39.17;18.07;;;-1.40;99.90;;;;;;5094119;28;20666;-88
2022/02/27 04:33:53;;;;;;;37.50;17.80;;;1.10;99.90;;;;;;5075669;28;20234;-87
2022/02/27 04:36:19;;;;;;;39.37;17.77;;;-1.50;99.90;;;;;;5094784;28;20195;-87
2022/02/27 04:38:45;;;;;;;39.17;18.17;;;-1.50;99.90;;;;;;5102306;28;20255;-87
2022/02/27 04:41:11;;;;;;;39.53;18.17;;;-1.50;99.90;;;;;;5107708;28;20159;-88
2022/02/27 04:43:38;;;;;;;41.00;18.57;;;-1.50;99.90;;;;;;5117455;28;20171;-88
2022/02/27 04:46:03;;;;;;;44.77;19.33;;;-1.10;99.90;;;;;;5126982;28;20183;-88
2022/02/27 04:48:29;;;;;;;39.73;18.83;;;-1.50;99.90;;;;;;5093646;28;20237;-88
2022/02/27 04:50:55;;;;;;;44.10;20.17;;;0.70;99.90;;;;;;5109319;28;20185;-88
2022/02/27 04:53:21;;;;;;;43.97;20.83;;;-1.60;99.90;;;;;;5092194;28;20615;-87
2022/02/27 04:55:46;;;;;;;42.47;20.43;;;-1.60;99.90;;;;;;5109210;28;20236;-87
2022/02/27 04:58:12;;;;;;;43.07;20.80;;;-0.10;99.90;;;;;;5075575;28;20210;-87
2022/02/27 05:00:38;;;;;;;45.83;19.77;;;-1.60;99.90;;;;;;5108945;28;20710;-87
2022/02/27 05:03:03;;;;;;;55.97;22.23;;;-1.00;99.90;;;;;;5092420;28;20647;-88
2022/02/27 05:05:29;;;;;;;46.97;20.43;;;0.80;99.90;;;;;;5092346;28;20194;-88
2022/02/27 05:07:55;;;;;;;49.10;22.23;;;0.20;99.90;;;;;;5075036;28;20183;-87
2022/02/27 05:10:20;;;;;;;47.73;22.57;;;-1.70;99.90;;;;;;5075581;28;20180;-87
2022/02/27 05:12:46;;;;;;;47.00;21.80;;;;;;;;;;5091838;28;20189;-87
2022/02/27 05:15:12;;;;;;;53.73;21.17;;;-1.70;99.90;;;;;;5093171;28;20198;-87
2022/02/27 05:17:38;;;;;;;44.60;21.50;;;-1.10;99.90;;;;;;5092959;28;20231;-87
2022/02/27 05:20:07;;;;;;;54.30;25.87;;;-0.70;99.90;;;;;;5091985;28;20665;-87
2022/02/27 05:22:33;;;;;;;60.53;24.47;;;-1.80;99.90;;;;;;5092050;28;20542;-87
2022/02/27 05:24:59;;;;;;;52.00;24.90;;;0.80;99.90;;;;;;5074773;28;20191;-87
2022/02/27 05:27:24;;;;;;;59.60;26.17;;;0.10;99.90;;;;;;5093201;28;20217;-87
2022/02/27 05:29:50;;;;;;;65.47;28.27;;;-0.50;99.90;;;;;;5108726;28;20185;-87
2022/02/27 05:32:16;;;;;;;57.73;27.40;;;0.30;99.90;;;;;;5108955;28;20187;-87
2022/02/27 05:34:42;;;;;;;68.00;27.63;;;1.50;99.90;;;;;;5091169;28;20248;-88
2022/02/27 05:37:07;;;;;;;79.83;33.23;;;0.00;99.90;;;;;;5092797;28;20187;-87
2022/02/27 05:39:33;;;;;;;77.23;32.80;;;0.50;99.90;;;;;;5093198;28;20678;-88
2022/02/27 05:41:59;;;;;;;74.63;31.03;;;-0.20;99.90;;;;;;5076406;28;20194;-87
2022/02/27 05:44:24;;;;;;;64.33;29.27;;;0.90;99.90;;;;;;5112450;28;20184;-87
2022/02/27 05:46:51;;;;;;;74.80;29.33;;;-1.30;99.90;;;;;;5111959;28;20267;-87
2022/02/27 05:49:17;;;;;;;70.17;30.20;;;-1.20;99.90;;;;;;5138910;27;20183;-88
2022/02/27 05:51:46;;;;;;;70.33;30.93;;;0.60;99.90;;;;;;5105533;28;20185;-87
2022/02/27 05:54:12;;;;;;;66.20;31.53;;;0.90;99.90;;;;;;5120584;28;20215;-88
2022/02/27 05:56:38;;;;;;;62.37;27.23;;;-0.70;99.90;;;;;;5117053;28;20205;-88
2022/02/27 05:59:04;;;;;;;78.73;32.30;;;-0.80;99.90;;;;;;5105586;28;20189;-88
2022/02/27 06:01:29;;;;;;;71.57;33.37;;;1.70;99.90;;;;;;5119859;28;20186;-88
2022/02/27 06:03:55;;;;;;;74.87;29.23;;;-0.60;99.90;;;;;;5091455;28;20314;-88
2022/02/27 06:06:21;;;;;;;72.13;34.17;;;;;;;;;;5115147;28;20663;-87
2022/02/27 06:08:47;;;;;;;76.13;31.80;;;-0.50;99.90;;;;;;5114957;28;20265;-86
2022/02/27 06:11:12;;;;;;;64.83;29.47;;;0.90;99.90;;;;;;5116122;28;20689;-88
2022/02/27 06:13:38;;;;;;;58.57;27.17;;;1.30;99.90;;;;;;5088198;28;20193;-88
2022/02/27 06:16:04;;;;;;;72.50;32.50;;;-0.30;99.90;;;;;;5129527;27;20190;-88
2022/02/27 06:18:29;;;;;;;67.00;31.80;;;-0.30;99.90;;;;;;5096910;28;20176;-88
2022/02/27 06:20:55;;;;;;;64.97;29.23;;;-0.30;99.90;;;;;;5096124;28;20261;-89
2022/02/27 06:23:20;;;;;;;67.23;28.70;;;2.00;99.90;;;;;;5112664;28;20184;-88
2022/02/27 06:25:46;;;;;;;68.37;31.77;;;;;;;;;;5129283;27;20206;-90
2022/02/27 06:28:12;;;;;;;67.97;30.40;;;-0.10;99.90;;;;;;5112839;27;20229;-89
2022/02/27 06:30:38;;;;;;;73.47;33.07;;;0.70;99.90;;;;;;5095842;28;20262;-90
2022/02/27 06:33:03;;;;;;;68.50;29.40;;;0.10;99.90;;;;;;5097013;28;20266;-89
2022/02/27 06:35:29;;;;;;;62.23;29.33;;;2.50;99.90;;;;;;5096571;28;20209;-88
2022/02/27 06:37:55;;;;;;;65.13;30.63;;;2.20;99.90;;;;;;5096386;28;20182;-88
2022/02/27 06:40:21;;;;;;;63.20;29.90;;;;;;;;;;5098108;28;20197;-88
2022/02/27 06:42:47;;;;;;;61.93;28.93;;;0.30;99.90;;;;;;5095730;28;20541;-88
2022/02/27 06:45:14;;;;;;;71.70;29.20;;;0.40;99.90;;;;;;5097262;28;20181;-89
2022/02/27 06:47:40;;;;;;;52.77;27.67;;;;;;;;;;5099380;28;20186;-88
2022/02/27 06:50:07;;;;;;;51.73;25.73;;;0.50;99.90;;;;;;5101527;28;20194;-91
2022/02/27 06:52:33;;;;;;;62.20;25.97;;;;;;;;;;5139712;27;20691;-90
2022/02/27 06:54:59;;;;;;;52.10;27.10;;;;;;;;;;5108000;28;20206;-88
2022/02/27 06:57:25;;;;;;;61.33;29.33;;;;;;;;;;5092675;28;20190;-89
2022/02/27 06:59:51;;;;;;;60.73;29.03;;;;;;;;;;5110119;28;20245;-90
2022/02/27 07:02:18;;;;;;;55.70;28.03;;;;;;;;;;5111381;28;20191;-88
2022/02/27 07:04:44;;;;;;;66.23;30.67;;;;;;;;;;5111022;28;20175;-88
2022/02/27 07:07:10;;;;;;;83.30;35.60;;;;;;;;;;5129619;28;20311;-88
2022/02/27 07:09:36;;;;;;;79.33;36.13;;;;;;;;;;5126484;28;20177;-88
2022/02/27 07:12:02;;;;;;;79.70;36.67;;;;;;;;;;5111481;28;20189;-88
2022/02/27 07:14:28;;;;;;;80.60;36.80;;;0.80;99.90;;;;;;5113242;28;20225;-88
2022/02/27 07:16:53;;;;;;;73.80;35.50;;;2.60;99.90;;;;;;5126347;28;20186;-87
2022/02/27 07:19:21;;;;;;;77.27;36.33;;;1.30;99.90;;;;;;5129269;28;20514;-88
2022/02/27 07:21:47;;;;;;;74.83;36.47;;;0.90;99.90;;;;;;5135396;28;20207;-88
2022/02/27 07:24:14;;;;;;;76.93;35.97;;;0.90;99.90;;;;;;5138846;28;20178;-87
2022/02/27 07:26:40;;;;;;;67.07;33.80;;;;;;;;;;5138846;28;20177;-88
2022/02/27 07:29:06;;;;;;;76.03;36.07;;;1.00;99.90;;;;;;5138205;28;20164;-87
2022/02/27 07:31:31;;;;;;;87.83;38.50;;;2.70;99.90;;;;;;5138493;28;20211;-88
2022/02/27 07:34:00;;;;;;;70.67;34.17;;;1.10;99.90;;;;;;5138493;28;20245;-87
2022/02/27 07:36:26;;;;;;;76.90;34.60;;;;;;;;;;5138323;28;20185;-86
2022/02/27 07:38:51;;;;;;;78.33;34.43;;;1.20;99.90;;;;;;5137517;28;20187;-85
2022/02/27 07:41:17;;;;;;;72.97;33.30;;;1.30;99.90;;;;;;5137643;28;20158;-86
2022/02/27 07:43:43;;;;;;;75.57;32.80;;;3.50;99.90;;;;;;5120518;28;20630;-89
2022/02/27 07:46:08;;;;;;;75.20;34.30;;;1.40;99.90;;;;;;5115228;28;20657;-88
2022/02/27 07:48:34;;;;;;;86.10;36.23;;;1.40;99.90;;;;;;5116149;28;20234;-89
2022/02/27 07:51:01;;;;;;;73.60;34.83;;;1.50;99.90;;;;;;5117158;28;20175;-88
2022/02/27 07:53:27;;;;;;;77.83;36.23;;;3.30;99.90;;;;;;5114242;28;20174;-89
2022/02/27 07:55:52;;;;;;;65.57;31.37;;;3.60;99.90;;;;;;5113536;28;20250;-87
2022/02/27 07:58:18;;;;;;;78.73;33.40;;;1.50;99.90;;;;;;5093580;28;20586;-89
2022/02/27 08:00:44;;;;;;;80.47;37.50;;;2.30;99.90;;;;;;5076437;28;20529;-89
2022/02/27 08:03:09;;;;;;;67.50;32.50;;;3.70;99.90;;;;;;5093155;28;20619;-88
2022/02/27 08:05:36;;;;;;;75.73;36.17;;;;;;;;;;5100220;28;20193;-90
2022/02/27 08:08:01;;;;;;;69.33;32.60;;;1.60;99.90;;;;;;5115969;28;20792;-89
2022/02/27 08:10:27;;;;;;;52.57;26.03;;;2.90;99.90;;;;;;5116565;28;20212;-90
2022/02/27 08:12:54;;;;;;;55.43;26.83;;;1.70;99.90;;;;;;5115066;28;20661;-90
2022/02/27 08:15:20;;;;;;;48.70;25.43;;;1.70;99.90;;;;;;5114245;28;20292;-88
2022/02/27 08:17:46;;;;;;;54.07;26.53;;;1.60;99.90;;;;;;5117287;28;20181;-90
2022/02/27 08:20:12;;;;;;;53.10;25.13;;;1.80;99.90;;;;;;5118577;28;20262;-90
2022/02/27 08:22:39;;;;;;;76.97;31.70;;;1.60;99.90;;;;;;5116552;28;20186;-89
2022/02/27 08:25:06;;;;;;;60.20;26.80;;;1.70;99.90;;;;;;5128470;28;20186;-88
2022/02/27 08:27:32;;;;;;;54.77;26.83;;;1.80;99.90;;;;;;5148340;27;20189;-89
2022/02/27 08:29:58;;;;;;;48.10;25.00;;;1.90;99.90;;;;;;5101445;28;20158;-89
2022/02/27 08:32:24;;;;;;;48.23;23.57;;;;;;;;;;5118871;28;20174;-87
2022/02/27 08:34:50;;;;;;;48.03;23.67;;;;;;;;;;5121360;28;20244;-89
2022/02/27 08:37:16;;;;;;;50.00;27.60;;;;;;;;;;5096853;28;20178;-89
2022/02/27 08:39:42;;;;;;;53.90;27.80;;;;;;;;;;5089272;28;20236;-88
2022/02/27 08:42:08;;;;;;;50.77;26.23;;;;;;;;;;5113619;28;20185;-90
2022/02/27 08:44:35;;;;;;;52.70;26.77;;;;;;;;;;5113946;28;20213;-89
2022/02/27 08:47:02;;;;;;;57.70;25.20;;;1.90;99.90;;;;;;5114650;28;20760;-89
2022/02/27 08:49:28;;;;;;;58.90;26.90;;;;;;;;;;5113688;27;20630;-89
2022/02/27 08:51:54;;;;;;;54.10;27.90;;;;;;;;;;5113244;28;20188;-89
2022/02/27 08:54:20;;;;;;;57.40;28.53;;;;;;;;;;5115002;28;20198;-89
2022/02/27 08:56:46;;;;;;;56.87;26.97;;;;;;;;;;5112416;28;20238;-89
2022/02/27 08:59:12;;;;;;;65.03;29.73;;;;;;;;;;5113097;28;20182;-87
2022/02/27 09:01:38;;;;;;;56.47;26.40;;;;;;;;;;5114022;28;20223;-89
2022/02/27 09:04:04;;;;;;;53.43;26.70;;;;;;;;;;5114137;28;20178;-90
2022/02/27 09:06:30;;;;;;;56.40;27.30;;;5.40;99.90;;;;;;5114310;28;20181;-88
2022/02/27 09:08:55;;;;;;;59.33;28.27;;;2.10;99.90;;;;;;5112983;28;20175;-89
2022/02/27 09:11:21;;;;;;;59.27;28.27;;;4.00;99.90;;;;;;5107306;28;20182;-88
2022/02/27 09:13:47;;;;;;;60.13;29.23;;;2.30;99.90;;;;;;5124179;27;20604;-88
2022/02/27 09:16:12;;;;;;;42.77;23.57;;;2.10;99.90;;;;;;5108338;28;20213;-89
2022/02/27 09:18:38;;;;;;;47.97;23.20;;;2.50;99.90;;;;;;5105226;28;20191;-87
2022/02/27 09:21:04;;;;;;;47.67;24.97;;;2.60;99.90;;;;;;5104204;28;20204;-87
2022/02/27 09:23:30;;;;;;;45.20;23.43;;;2.70;99.90;;;;;;5117931;27;20218;-89
2022/02/27 09:25:56;;;;;;;48.23;25.07;;;2.70;99.90;;;;;;5112495;28;20224;-89
2022/02/27 09:28:22;;;;;;;49.43;23.47;;;2.70;99.90;;;;;;5113557;28;20193;-89
2022/02/27 09:30:48;;;;;;;51.37;24.93;;;;;;;;;;5144964;27;20188;-87
2022/02/27 09:33:14;;;;;;;46.17;23.93;;;;;;;;;;5111245;28;20217;-87
2022/02/27 09:35:40;;;;;;;45.80;23.23;;;;;;;;;;5114200;28;20209;-89
2022/02/27 09:38:06;;;;;;;44.67;21.90;;;2.80;99.90;;;;;;5093294;28;20595;-90
2022/02/27 09:40:32;;;;;;;29.73;17.40;;;2.80;99.90;;;;;;5110047;28;20192;-89
2022/02/27 09:42:58;;;;;;;27.27;17.27;;;2.70;99.90;;;;;;5107540;28;20196;-88
2022/02/27 09:45:24;;;;;;;36.70;16.77;;;;;;;;;;5111196;28;20197;-87
2022/02/27 09:47:52;;;;;;;35.73;18.80;;;2.60;99.90;;;;;;5115649;28;20216;-89
2022/02/27 09:50:19;;;;;;;38.90;17.93;;;2.70;99.90;;;;;;5103438;27;20186;-91
2022/02/27 09:52:45;;;;;;;35.03;17.40;;;;;;;;;;5087225;28;20183;-90
2022/02/27 09:55:12;;;;;;;29.03;16.63;;;2.90;99.90;;;;;;5107187;27;20258;-90
2022/02/27 09:57:38;;;;;;;29.90;16.30;;;2.90;99.90;;;;;;5136075;27;20195;-91
2022/02/27 10:00:08;;;;;;;31.13;15.73;;;2.90;99.90;;;;;;5103883;28;20193;-89
2022/02/27 10:02:34;;;;;;;34.63;17.07;;;2.90;99.90;;;;;;5098967;28;20542;-88
2022/02/27 10:05:00;;;;;;;37.60;19.67;;;4.00;99.90;;;;;;5098287;27;20188;-89
2022/02/27 10:07:27;;;;;;;37.43;18.70;;;;;;;;;;5099048;27;20188;-89
2022/02/27 10:10:06;;;;;;;39.90;19.60;;;3.00;99.90;;;;;;5102278;28;20186;-89
2022/02/27 10:12:32;;;;;;;38.60;21.70;;;2.90;99.90;;;;;;5105952;28;20635;-88
2022/02/27 10:15:04;;;;;;;44.33;21.33;;;4.20;99.90;;;;;;5103615;28;20203;-89
2022/02/27 10:17:34;;;;;;;46.20;21.10;;;2.80;99.90;;;;;;5108332;27;20195;-90
2022/02/27 10:20:03;;;;;;;41.60;19.67;;;2.80;99.90;;;;;;5105496;28;20186;-91
2022/02/27 10:22:34;;;;;;;37.30;19.60;;;2.70;99.90;;;;;;5108363;27;20200;-88
2022/02/27 10:25:05;;;;;;;35.77;19.80;;;2.70;99.90;;;;;;5114100;28;20395;-88
2022/02/27 10:27:55;;;;;;;39.07;20.47;;;2.70;99.90;;;;;;5110055;28;20192;-88
2022/02/27 10:30:21;;;;;;;38.83;22.47;;;;;;;;;;5112779;28;20187;-87
2022/02/27 10:33:08;;;;;;;42.57;24.30;;;2.70;99.90;;;;;;5105455;28;20326;-86
2022/02/27 10:35:46;;;;;;;45.83;24.87;;;2.70;99.90;;;;;;5100772;28;20210;-87
2022/02/27 10:41:14;;;;;;;48.27;24.60;;;2.80;99.90;;;;;;5102428;28;20629;-89
2022/02/27 10:43:46;;;;;;;40.80;24.23;;;1.70;99.90;;;;;;5098450;27;20273;-88
2022/02/27 10:46:14;;;;;;;49.57;24.40;;;1.90;99.90;;;;;;5092395;28;20213;-88
2022/02/27 10:48:40;;;;;;;47.80;23.53;;;3.40;99.90;;;;;;5092205;27;20273;-86
2022/02/27 10:51:09;;;;;;;49.20;25.87;;;2.00;99.90;;;;;;5073887;28;20187;-87
2022/02/27 10:53:53;;;;;;;45.50;24.13;;;2.00;99.90;;;;;;5092552;28;20186;-89
2022/02/27 10:56:19;;;;;;;43.80;22.47;;;;;;;;;;5092846;28;20210;-89
2022/02/27 10:58:47;;;;;;;45.33;23.47;;;1.90;99.90;;;;;;5095950;28;20199;-89
2022/02/27 11:01:23;;;;;;;39.17;19.90;;;1.80;99.90;;;;;;5102348;27;20219;-88
2022/02/27 11:03:50;;;;;;;47.87;22.53;;;1.90;99.90;;;;;;5098246;28;20259;-90
2022/02/27 11:06:17;;;;;;;49.13;24.37;;;1.90;99.90;;;;;;5097303;27;20178;-89
2022/02/27 11:08:44;;;;;;;50.63;23.50;;;;;;;;;;5118467;27;20214;-88
2022/02/27 11:11:10;;;;;;;54.33;26.50;;;;;;;;;;5096274;28;20212;-87
2022/02/27 11:13:36;;;;;;;52.30;24.30;;;2.20;99.90;;;;;;5099454;27;20197;-88
2022/02/27 11:16:02;;;;;;;53.87;23.50;;;3.20;99.90;;;;;;5094282;28;20209;-91
2022/02/27 11:18:29;;;;;;;48.63;23.73;;;2.40;99.90;;;;;;5095163;28;20188;-88
2022/02/27 11:20:57;;;;;;;39.83;21.60;;;2.40;99.90;;;;;;5095322;28;20195;-87
2022/02/27 11:23:23;;;;;;;44.40;22.43;;;2.50;99.90;;;;;;5103594;28;20279;-87
2022/02/27 11:25:50;;;;;;;39.87;19.47;;;3.80;99.90;;;;;;5099968;28;20198;-89
2022/02/27 11:28:20;;;;;;;61.83;26.77;;;4.30;99.90;;;;;;5120400;27;20190;-88
2022/02/27 11:30:50;;;;;;;38.13;18.10;;;2.90;99.90;;;;;;5122634;27;20186;-90
2022/02/27 11:33:20;;;;;;;37.10;18.23;;;3.00;99.90;;;;;;5120253;27;20226;-87
2022/02/27 11:35:55;;;;;;;25.70;12.87;;;3.50;99.90;;;;;;5111033;28;20594;-89
2022/02/27 11:38:30;;;;;;;22.87;12.73;;;3.40;99.90;;;;;;5110993;27;20201;-89
2022/02/27 11:41:00;;;;;;;27.80;14.40;;;3.50;99.90;;;;;;5111085;28;20179;-88
2022/02/27 11:43:44;;;;;;;17.67;10.67;;;3.80;99.90;;;;;;5111620;28;20269;-88
2022/02/27 11:46:17;;;;;;;22.87;11.77;;;4.00;99.90;;;;;;5132744;27;20214;-90
2022/02/27 11:49:27;;;;;;;22.63;10.50;;;4.20;99.90;;;;;;5109691;27;20196;-87
2022/02/27 11:52:06;;;;;;;7.87;3.37;;;4.40;99.90;;;;;;5098746;28;20196;-88
2022/02/27 11:54:45;;;;;;;5.80;3.70;;;4.60;99.90;;;;;;5079234;28;20207;-90
2022/02/27 11:57:14;;;;;;;24.07;8.40;;;5.00;99.90;;;;;;5107603;28;20268;-89
2022/02/27 11:59:49;;;;;;;8.97;4.20;;;5.10;99.90;;;;;;5102042;28;20263;-87
2022/02/27 12:02:24;;;;;;;8.73;3.60;;;5.20;99.90;;;;;;5095894;28;20186;-88
2022/02/27 12:04:52;;;;;;;5.60;2.90;;;5.30;99.90;;;;;;5108325;28;20532;-86
2022/02/27 12:07:18;;;;;;;4.13;2.20;;;;;;;;;;5103987;28;20258;-89
2022/02/27 12:09:49;;;;;;;10.07;3.33;;;5.80;99.90;;;;;;5109224;28;20254;-91
2022/02/27 12:12:44;;;;;;;7.50;4.13;;;6.00;99.90;;;;;;5120650;28;20177;-89
2022/02/27 12:15:30;;;;;;;9.33;4.33;;;6.00;99.90;;;;;;5108088;27;20249;-89
2022/02/27 12:18:07;;;;;;;10.50;4.60;;;6.00;99.90;;;;;;5124728;27;20226;-90
2022/02/27 12:20:39;;;;;;;13.07;5.77;;;6.10;99.90;;;;;;5114335;28;20288;-91
2022/02/27 12:23:07;;;;;;;11.33;5.73;;;6.10;99.90;;;;;;5119202;28;20174;-89
2022/02/27 12:25:48;;;;;;;13.77;5.57;;;6.00;99.90;;;;;;5111644;28;20192;-90
2022/02/27 12:28:48;;;;;;;10.93;5.40;;;6.00;99.90;;;;;;5103973;28;20241;-90
2022/02/27 12:31:32;;;;;;;8.80;5.10;;;6.20;99.90;;;;;;5110438;28;20529;-92
2022/02/27 12:34:12;;;;;;;21.93;7.50;;;3.50;99.90;;;;;;5134023;27;20680;-90
2022/02/27 12:36:41;;;;;;;6.37;3.23;;;6.50;99.90;;;;;;5123424;27;20965;-91
2022/02/27 12:39:11;;;;;;;8.00;3.70;;;6.60;99.20;;;;;;5110502;27;20189;-88
2022/02/27 12:41:46;;;;;;;18.30;5.87;;;6.70;99.90;;;;;;5107792;27;20186;-89
2022/02/27 12:44:44;;;;;;;14.17;5.70;;;6.60;99.90;;;;;;5124535;27;20173;-88
2022/02/27 12:47:13;;;;;;;5.87;3.47;;;7.30;99.90;;;;;;5094061;28;20706;-90
2022/02/27 12:52:30;;;;;;;7.13;4.43;;;8.00;92.60;;;;;;5085927;28;20186;-90
2022/02/27 12:54:56;;;;;;;11.20;5.00;;;7.90;96.90;;;;;;5089170;28;20405;-89